Time;durP1;ratioP1;P1;durP2;ratioP2;P2;SDS_P1;SDS_P2;PMS_P1;PMS_P2;Temp;Humidity;BMP_temperature;BMP_pressure;BME280_temperature;BME280_humidity;BME280_pressure;Samples;Min_cycle;Max_cycle;Signal;HPM_P1;HPM_P2
2023/04/15 00:01:59;;;;;;;3.53;1.52;;;6.40;11.30;;;;;;5052369;28;20147;-66
2023/04/15 00:04:26;;;;;;;8.13;1.63;;;6.40;2.70;;;;;;5052571;28;20033;-66
2023/04/15 00:06:53;;;;;;;6.00;1.80;;;6.40;5.90;;;;;;5052653;28;20043;-66
2023/04/15 00:09:19;;;;;;;2.65;1.55;;;6.40;7.60;;;;;;5053645;28;20144;-66
2023/04/15 00:11:45;;;;;;;2.15;1.23;;;6.30;13.30;;;;;;5056632;28;20091;-66
2023/04/15 00:14:12;;;;;;;3.97;2.00;;;6.30;20.00;;;;;;5056256;28;20049;-66
2023/04/15 00:16:38;;;;;;;2.83;1.55;;;6.30;17.60;;;;;;5056073;28;20412;-66
2023/04/15 00:19:03;;;;;;;3.75;1.58;;;6.30;19.60;;;;;;5056142;28;20056;-66
2023/04/15 00:21:29;;;;;;;1.95;1.40;;;6.20;21.70;;;;;;5056359;28;20076;-66
2023/04/15 00:23:55;;;;;;;3.05;1.48;;;6.20;23.90;;;;;;5056230;28;20041;-66
2023/04/15 00:26:21;;;;;;;5.03;1.48;;;6.10;34.60;;;;;;5056094;28;20503;-66
2023/04/15 00:28:46;;;;;;;2.88;1.70;;;6.10;39.10;;;;;;5038152;28;20136;-67
2023/04/15 00:31:12;;;;;;;6.40;1.80;;;6.10;29.30;;;;;;5056146;28;20037;-66
2023/04/15 00:33:38;;;;;;;6.07;2.03;;;6.00;33.20;;;;;;5021820;28;20075;-66
2023/04/15 00:36:05;;;;;;;5.22;1.70;;;6.00;32.20;;;;;;5055929;28;20116;-66
2023/04/15 00:38:31;;;;;;;4.45;1.75;;;6.00;32.80;;;;;;5056064;28;20550;-66
2023/04/15 00:40:57;;;;;;;5.25;1.73;;;5.90;37.20;;;;;;5056007;28;20048;-66
2023/04/15 00:43:22;;;;;;;4.80;2.08;;;5.90;36.90;;;;;;5055667;28;20087;-66
2023/04/15 00:45:52;;;;;;;4.57;2.33;;;5.90;39.40;;;;;;5055958;28;20510;-66
2023/04/15 00:48:18;;;;;;;2.28;1.42;;;5.80;49.70;;;;;;5055799;28;20161;-66
2023/04/15 00:50:44;;;;;;;3.17;1.58;;;5.80;49.80;;;;;;5055871;28;20528;-66
2023/04/15 00:53:10;;;;;;;3.67;1.52;;;5.70;53.50;;;;;;5055716;28;20057;-66
2023/04/15 00:55:36;;;;;;;4.40;1.85;;;5.70;54.20;;;;;;5055713;28;20411;-66
2023/04/15 00:58:02;;;;;;;2.40;1.70;;;5.70;54.30;;;;;;5055648;28;20428;-66
2023/04/15 01:00:29;;;;;;;2.83;1.40;;;5.60;63.00;;;;;;5055647;28;20079;-66
2023/04/15 01:02:54;;;;;;;4.85;2.10;;;5.60;65.00;;;;;;5055529;28;20532;-66
2023/04/15 01:05:20;;;;;;;3.17;1.88;;;5.60;68.40;;;;;;5055558;28;20064;-66
2023/04/15 01:07:47;;;;;;;3.70;1.83;;;5.60;63.00;;;;;;5055451;28;20048;-67
2023/04/15 01:10:12;;;;;;;4.07;2.17;;;5.60;63.00;;;;;;5055440;28;20484;-66
2023/04/15 01:12:39;;;;;;;6.00;2.05;;;5.50;65.60;;;;;;5037667;28;20049;-66
2023/04/15 01:15:05;;;;;;;6.28;2.40;;;5.50;66.30;;;;;;5055144;28;20131;-66
2023/04/15 01:17:31;;;;;;;3.75;1.98;;;5.50;67.20;;;;;;5055295;28;20378;-66
2023/04/15 01:19:57;;;;;;;3.40;2.08;;;5.50;68.70;;;;;;5055321;28;20040;-66
2023/04/15 01:22:25;;;;;;;4.20;1.98;;;5.50;71.70;;;;;;5054251;28;20049;-66
2023/04/15 01:25:00;;;;;;;5.00;2.25;;;5.50;72.40;;;;;;5055121;28;20075;-66
2023/04/15 01:27:26;;;;;;;3.90;2.33;;;5.50;72.50;;;;;;5055119;28;20032;-66
2023/04/15 01:29:52;;;;;;;6.53;2.65;;;5.50;74.40;;;;;;5054745;28;20071;-66
2023/04/15 01:32:18;;;;;;;4.00;1.92;;;5.50;73.40;;;;;;5054953;28;20045;-66
2023/04/15 01:34:44;;;;;;;3.53;2.10;;;5.50;71.60;;;;;;5054941;28;20044;-67
2023/04/15 01:37:10;;;;;;;5.10;2.42;;;5.50;73.80;;;;;;5054659;28;20040;-67
2023/04/15 01:39:36;;;;;;;3.90;2.00;;;5.50;73.50;;;;;;5054563;28;20048;-67
2023/04/15 01:42:02;;;;;;;3.70;2.00;;;5.50;71.10;;;;;;5054586;28;20041;-66
2023/04/15 01:44:27;;;;;;;7.57;2.25;;;5.50;73.60;;;;;;5054769;28;20045;-67
2023/04/15 01:46:53;;;;;;;6.22;2.75;;;5.50;74.20;;;;;;5054474;28;20037;-67
2023/04/15 01:49:18;;;;;;;3.45;2.17;;;5.50;75.30;;;;;;5054637;28;20037;-66
2023/04/15 01:51:44;;;;;;;4.78;1.95;;;5.50;75.10;;;;;;5054374;28;20037;-67
2023/04/15 01:54:10;;;;;;;8.57;3.00;;;6.50;75.80;;;;;;5054570;28;20037;-67
2023/04/15 01:56:35;;;;;;;3.47;2.08;;;5.50;75.40;;;;;;5054597;28;20392;-66
2023/04/15 01:59:02;;;;;;;4.38;1.67;;;5.40;76.40;;;;;;5054318;28;20033;-67
2023/04/15 02:01:28;;;;;;;3.63;2.03;;;5.40;76.50;;;;;;5054719;28;20041;-61
2023/04/15 02:03:53;;;;;;;3.67;2.10;;;5.40;79.20;;;;;;5063522;22;20048;-82
2023/04/15 02:06:19;;;;;;;4.78;2.15;;;5.40;79.80;;;;;;5058058;28;20048;-85
2023/04/15 02:08:45;;;;;;;4.57;2.33;;;5.40;79.60;;;;;;5058651;28;20044;-85
2023/04/15 02:11:11;;;;;;;4.88;2.38;;;5.30;90.10;;;;;;5058971;28;20131;-85
2023/04/15 02:13:36;;;;;;;5.43;2.33;;;5.30;86.30;;;;;;5042702;28;20369;-85
2023/04/15 02:16:02;;;;;;;3.13;2.00;;;5.30;82.60;;;;;;5058628;28;20044;-85
2023/04/15 02:18:28;;;;;;;3.33;2.10;;;5.20;82.30;;;;;;5059081;28;20032;-85
2023/04/15 02:20:56;;;;;;;3.80;2.50;;;5.20;80.40;;;;;;5042393;28;20128;-85
2023/04/15 02:23:21;;;;;;;5.60;2.67;;;5.20;89.40;;;;;;5042870;28;20110;-85
2023/04/15 02:25:47;;;;;;;5.15;2.88;;;5.10;86.80;;;;;;5042319;28;20036;-85
2023/04/15 02:28:12;;;;;;;4.40;2.42;;;5.10;86.40;;;;;;5041340;28;20090;-85
2023/04/15 02:30:39;;;;;;;6.63;2.45;;;5.10;85.80;;;;;;5042188;28;20068;-85
2023/04/15 02:33:06;;;;;;;4.10;2.20;;;5.10;89.00;;;;;;5041516;28;20048;-85
2023/04/15 02:35:32;;;;;;;4.75;2.30;;;5.10;86.70;;;;;;5042290;28;20035;-85
2023/04/15 02:37:57;;;;;;;7.00;2.63;;;5.10;90.40;;;;;;5041297;28;20040;-85
2023/04/15 02:40:23;;;;;;;4.32;2.38;;;5.10;88.90;;;;;;5058277;28;20044;-85
2023/04/15 02:42:49;;;;;;;7.82;2.67;;;5.10;88.10;;;;;;5041221;28;20045;-85
2023/04/15 02:45:15;;;;;;;7.45;2.90;;;5.10;87.50;;;;;;5041868;28;20514;-85
2023/04/15 02:47:40;;;;;;;4.63;2.53;;;5.10;90.50;;;;;;5058004;28;20403;-85
2023/04/15 02:50:08;;;;;;;5.05;2.50;;;5.10;89.60;;;;;;5057679;28;20491;-85
2023/04/15 02:52:34;;;;;;;5.38;2.58;;;5.10;90.30;;;;;;5057246;28;20086;-85
2023/04/15 02:55:01;;;;;;;5.88;2.78;;;5.00;91.40;;;;;;5040871;28;20477;-85
2023/04/15 02:57:28;;;;;;;4.97;2.30;;;5.00;92.30;;;;;;5040967;28;20082;-85
2023/04/15 02:59:53;;;;;;;9.05;2.72;;;5.00;92.90;;;;;;5057742;28;20028;-85
2023/04/15 03:02:19;;;;;;;7.57;2.67;;;5.10;95.10;;;;;;5057769;28;20066;-85
2023/04/15 03:04:45;;;;;;;5.18;2.85;;;5.10;94.00;;;;;;5040892;28;20048;-85
2023/04/15 03:07:10;;;;;;;4.25;2.55;;;5.00;93.00;;;;;;5041066;28;20488;-85
2023/04/15 03:09:38;;;;;;;8.10;3.33;;;5.00;93.10;;;;;;5057692;28;20502;-85
2023/04/15 03:12:04;;;;;;;4.53;2.47;;;5.00;94.10;;;;;;5040833;28;20449;-85
2023/04/15 03:14:29;;;;;;;6.40;2.45;;;5.00;93.30;;;;;;5040564;28;20033;-86
2023/04/15 03:16:55;;;;;;;4.93;2.92;;;5.00;93.60;;;;;;5057740;28;20037;-85
2023/04/15 03:19:21;;;;;;;5.72;2.95;;;5.00;94.50;;;;;;5040903;28;20037;-86
2023/04/15 03:21:46;;;;;;;5.80;2.47;;;5.00;94.80;;;;;;5041079;28;20041;-84
2023/04/15 03:24:12;;;;;;;5.68;2.90;;;5.00;93.80;;;;;;5040993;28;20048;-85
2023/04/15 03:26:37;;;;;;;4.93;2.88;;;4.90;93.70;;;;;;5040971;28;20378;-85
2023/04/15 03:29:03;;;;;;;5.75;3.30;;;5.90;94.30;;;;;;5040574;28;20510;-84
2023/04/15 03:31:29;;;;;;;3.90;2.28;;;4.90;93.60;;;;;;5057141;28;20499;-85
2023/04/15 03:33:54;;;;;;;7.22;2.85;;;4.90;93.70;;;;;;5057849;28;20047;-85
2023/04/15 03:36:20;;;;;;;6.65;2.95;;;4.80;93.40;;;;;;5058138;28;20094;-85
2023/04/15 03:38:45;;;;;;;4.57;2.97;;;4.80;93.80;;;;;;5058287;28;20491;-84
2023/04/15 03:41:11;;;;;;;6.10;2.75;;;4.80;93.80;;;;;;5041208;28;20044;-84
2023/04/15 03:43:37;;;;;;;7.10;3.22;;;4.80;94.70;;;;;;5057334;28;20553;-85
2023/04/15 03:46:03;;;;;;;4.82;2.80;;;4.70;95.60;;;;;;5058026;28;20037;-85
2023/04/15 03:48:29;;;;;;;4.10;2.55;;;4.70;96.10;;;;;;5041471;28;20131;-85
2023/04/15 03:50:54;;;;;;;5.85;3.03;;;4.60;97.90;;;;;;5058063;28;20076;-84
2023/04/15 03:53:20;;;;;;;5.80;2.83;;;4.50;99.90;;;;;;5040067;28;20041;-85
2023/04/15 03:55:46;;;;;;;6.22;3.13;;;4.50;99.90;;;;;;5040892;28;20154;-85
2023/04/15 03:58:12;;;;;;;5.53;2.88;;;4.50;99.90;;;;;;5057488;28;20041;-84
2023/04/15 04:00:38;;;;;;;4.28;2.55;;;4.50;99.90;;;;;;5057643;28;20043;-84
2023/04/15 04:03:04;;;;;;;6.20;3.25;;;4.50;99.90;;;;;;5057778;28;20033;-85
2023/04/15 04:05:30;;;;;;;6.15;3.25;;;4.40;99.90;;;;;;5057076;28;20452;-86
2023/04/15 04:07:55;;;;;;;6.13;2.88;;;4.40;99.90;;;;;;5040656;28;20040;-87
2023/04/15 04:10:21;;;;;;;5.13;2.63;;;4.40;99.90;;;;;;5057780;28;20041;-85
2023/04/15 04:12:47;;;;;;;5.00;2.63;;;4.40;99.90;;;;;;5056634;28;20085;-86
2023/04/15 04:15:12;;;;;;;9.63;3.40;;;4.40;99.90;;;;;;5058048;28;20502;-90
2023/04/15 04:17:38;;;;;;;4.88;2.80;;;4.30;99.90;;;;;;5043638;28;20422;-89
2023/04/15 04:20:04;;;;;;;4.40;2.58;;;4.30;99.90;;;;;;5042628;28;20044;-90
2023/04/15 04:22:30;;;;;;;6.22;3.30;;;4.30;99.90;;;;;;5059752;28;20045;-88
2023/04/15 04:24:58;;;;;;;6.35;3.45;;;4.30;99.90;;;;;;5041573;28;20124;-89
2023/04/15 04:27:24;;;;;;;9.68;3.58;;;4.30;99.90;;;;;;5041121;28;20122;-87
2023/04/15 04:29:49;;;;;;;5.13;2.92;;;4.30;99.90;;;;;;5056947;28;20033;-87
2023/04/15 04:32:15;;;;;;;10.48;3.92;;;4.30;99.90;;;;;;5057681;28;20087;-86
2023/04/15 04:34:40;;;;;;;13.23;4.30;;;4.30;99.90;;;;;;5040791;28;20068;-86
2023/04/15 04:37:06;;;;;;;8.02;3.63;;;4.30;99.90;;;;;;5041397;28;20074;-84
2023/04/15 04:39:31;;;;;;;7.03;3.50;;;4.40;99.90;;;;;;5042441;28;20040;-91
2023/04/15 04:41:57;;;;;;;7.03;3.95;;;4.40;99.90;;;;;;5061803;28;20100;-90
2023/04/15 04:44:23;;;;;;;11.60;4.20;;;4.30;99.90;;;;;;5043206;28;20040;-90
2023/04/15 04:46:48;;;;;;;12.85;4.93;;;4.40;99.90;;;;;;5060701;28;20043;-85
2023/04/15 04:49:14;;;;;;;7.63;4.32;;;4.40;99.90;;;;;;5040948;28;20040;-88
2023/04/15 04:51:40;;;;;;;11.52;5.05;;;4.40;99.90;;;;;;5041329;28;20041;-88
2023/04/15 04:54:05;;;;;;;9.40;4.88;;;4.50;99.90;;;;;;5057632;28;20063;-88
2023/04/15 04:56:33;;;;;;;7.10;4.03;;;4.40;99.90;;;;;;5059535;28;20040;-88
2023/04/15 04:58:58;;;;;;;10.85;5.03;;;4.60;99.90;;;;;;5061382;28;20050;-88
2023/04/15 05:01:26;;;;;;;8.23;4.00;;;4.50;99.90;;;;;;5045162;28;20124;-88
2023/04/15 05:03:52;;;;;;;7.88;4.70;;;4.50;99.90;;;;;;5059655;28;20106;-86
2023/04/15 05:06:17;;;;;;;9.50;5.35;;;4.50;99.90;;;;;;5044564;28;20052;-88
2023/04/15 05:08:43;;;;;;;10.43;4.72;;;4.60;99.90;;;;;;5043995;28;20063;-88
2023/04/15 05:11:08;;;;;;;8.23;4.78;;;4.60;99.90;;;;;;5060405;28;20522;-87
2023/04/15 05:13:37;;;;;;;9.02;5.00;;;4.60;99.90;;;;;;5059647;28;20036;-88
2023/04/15 05:16:04;;;;;;;12.25;5.20;;;6.00;99.90;;;;;;5060728;28;20085;-87
2023/04/15 05:18:29;;;;;;;7.82;4.35;;;4.60;99.90;;;;;;5043461;28;20051;-89
2023/04/15 05:20:55;;;;;;;8.55;4.65;;;4.70;99.90;;;;;;5060719;28;20167;-87
2023/04/15 05:23:21;;;;;;;8.85;4.28;;;4.80;99.90;;;;;;5059675;28;20094;-82
2023/04/15 05:25:46;;;;;;;9.52;3.88;;;4.80;99.90;;;;;;5041170;28;20036;-86
2023/04/15 05:28:12;;;;;;;11.40;4.30;;;6.30;99.90;;;;;;5041734;28;20036;-86
2023/04/15 05:30:38;;;;;;;7.97;4.68;;;4.90;99.90;;;;;;5058633;28;20044;-86
2023/04/15 05:33:04;;;;;;;10.57;4.78;;;5.00;99.90;;;;;;5058375;28;20032;-86
2023/04/15 05:35:29;;;;;;;9.40;4.80;;;5.00;99.90;;;;;;5057959;28;20086;-86
2023/04/15 05:37:55;;;;;;;9.30;4.72;;;5.20;99.90;;;;;;5040595;28;20051;-85
2023/04/15 05:40:21;;;;;;;11.05;5.43;;;7.10;99.90;;;;;;5041401;28;20032;-85
2023/04/15 05:42:46;;;;;;;8.85;4.53;;;5.30;99.90;;;;;;5041561;28;20036;-85
2023/04/15 05:45:12;;;;;;;6.88;4.13;;;5.40;99.90;;;;;;5057776;28;20072;-87
2023/04/15 05:47:39;;;;;;;10.48;4.82;;;5.50;99.90;;;;;;5058431;28;20555;-87
2023/04/15 05:50:05;;;;;;;7.07;3.88;;;5.60;99.90;;;;;;5041231;28;20041;-87
2023/04/15 05:52:31;;;;;;;10.43;4.55;;;5.70;99.90;;;;;;5058852;28;20415;-87
2023/04/15 05:54:57;;;;;;;9.02;4.22;;;5.80;99.90;;;;;;5042007;28;20119;-86
2023/04/15 05:57:22;;;;;;;8.60;4.60;;;5.90;99.90;;;;;;5041674;28;20072;-87
2023/04/15 05:59:50;;;;;;;8.07;4.70;;;6.00;99.90;;;;;;5058074;28;20137;-87
2023/04/15 06:02:16;;;;;;;7.72;4.38;;;5.90;99.90;;;;;;5041270;28;20051;-86
2023/04/15 06:04:42;;;;;;;8.20;4.00;;;6.00;99.90;;;;;;5040728;28;20479;-86
2023/04/15 06:07:08;;;;;;;10.15;4.72;;;6.10;99.90;;;;;;5057615;28;20056;-86
2023/04/15 06:09:34;;;;;;;10.65;4.90;;;6.10;99.90;;;;;;5040683;28;20043;-88
2023/04/15 06:12:00;;;;;;;6.88;3.95;;;6.40;99.90;;;;;;5040877;28;20041;-87
2023/04/15 06:14:26;;;;;;;7.70;4.32;;;6.30;99.90;;;;;;5040550;28;20074;-89
2023/04/15 06:16:52;;;;;;;8.63;4.20;;;6.20;99.90;;;;;;5057919;28;20041;-87
2023/04/15 06:19:18;;;;;;;7.55;4.03;;;6.50;99.90;;;;;;5041710;28;20498;-87
2023/04/15 06:21:44;;;;;;;6.72;3.88;;;6.50;99.90;;;;;;5041820;28;20041;-87
2023/04/15 06:24:10;;;;;;;8.80;4.25;;;8.20;99.90;;;;;;5057226;28;20044;-87
2023/04/15 06:26:36;;;;;;;9.52;4.03;;;6.70;99.90;;;;;;5057572;28;20052;-87
2023/04/15 06:29:02;;;;;;;9.55;4.90;;;6.80;99.90;;;;;;5041676;28;20040;-87
2023/04/15 06:31:27;;;;;;;8.05;4.00;;;6.80;99.90;;;;;;5057728;28;20040;-87
2023/04/15 06:33:53;;;;;;;6.70;4.03;;;6.90;99.90;;;;;;5040854;28;20044;-87
2023/04/15 06:36:19;;;;;;;12.82;4.32;;;7.00;99.90;;;;;;5041024;28;20036;-88
2023/04/15 06:38:44;;;;;;;7.35;4.35;;;8.50;99.90;;;;;;5040756;28;20046;-87
2023/04/15 06:41:10;;;;;;;8.57;4.25;;;7.10;99.90;;;;;;5057244;28;20549;-87
2023/04/15 06:43:36;;;;;;;7.78;4.35;;;7.20;99.90;;;;;;5057114;28;20048;-87
2023/04/15 06:46:01;;;;;;;7.22;3.40;;;7.20;99.90;;;;;;5041559;28;20127;-87
2023/04/15 06:48:27;;;;;;;13.15;4.20;;;7.30;99.90;;;;;;5041521;28;20063;-88
2023/04/15 06:50:52;;;;;;;7.18;3.88;;;7.30;99.90;;;;;;5040393;28;20048;-87
2023/04/15 06:53:18;;;;;;;6.65;3.85;;;7.40;99.90;;;;;;5056867;28;20063;-87
2023/04/15 06:55:44;;;;;;;7.47;4.03;;;7.40;99.90;;;;;;5040355;28;20044;-88
2023/04/15 06:58:09;;;;;;;8.23;4.25;;;9.00;99.80;;;;;;5057335;28;20516;-88
2023/04/15 07:00:37;;;;;;;9.40;4.22;;;7.50;99.70;;;;;;5040790;28;20044;-87
2023/04/15 07:03:03;;;;;;;9.50;4.00;;;7.60;99.90;;;;;;5057079;28;20048;-87
2023/04/15 07:05:31;;;;;;;6.70;3.63;;;7.60;99.90;;;;;;5056737;28;20062;-87
2023/04/15 07:07:57;;;;;;;6.30;3.80;;;7.70;99.90;;;;;;5040954;28;20049;-87
2023/04/15 07:10:22;;;;;;;8.32;4.13;;;7.80;99.90;;;;;;5056470;28;20055;-87
2023/04/15 07:12:49;;;;;;;6.32;3.67;;;8.60;99.90;;;;;;5040276;28;20032;-86
2023/04/15 07:15:15;;;;;;;9.30;4.38;;;7.90;99.90;;;;;;5039966;28;20033;-87
2023/04/15 07:17:42;;;;;;;6.70;3.75;;;7.90;99.50;;;;;;5040702;28;20058;-87
2023/04/15 07:20:08;;;;;;;8.80;4.03;;;8.00;99.20;;;;;;5056330;28;20041;-88
2023/04/15 07:22:34;;;;;;;5.72;3.63;;;8.10;99.70;;;;;;5056480;28;20119;-88
2023/04/15 07:25:00;;;;;;;8.18;3.47;;;9.30;99.70;;;;;;5057627;28;20153;-88
2023/04/15 07:27:26;;;;;;;7.35;3.85;;;8.20;97.50;;;;;;5040671;28;20044;-89
2023/04/15 07:29:52;;;;;;;6.90;3.78;;;8.90;98.70;;;;;;5040239;28;20033;-87
2023/04/15 07:32:18;;;;;;;6.20;3.78;;;8.40;97.70;;;;;;5056979;28;20606;-88
2023/04/15 07:34:43;;;;;;;5.47;3.47;;;8.50;96.50;;;;;;5040988;28;20483;-89
2023/04/15 07:37:09;;;;;;;5.30;3.08;;;10.60;96.80;;;;;;5057697;28;20047;-90
2023/04/15 07:39:35;;;;;;;5.80;2.75;;;9.20;95.00;;;;;;5056967;28;20559;-88
2023/04/15 07:42:02;;;;;;;7.07;3.25;;;8.70;94.10;;;;;;5057732;28;20040;-88
2023/04/15 07:44:28;;;;;;;7.57;3.40;;;8.70;94.00;;;;;;5040569;28;20041;-87
2023/04/15 07:46:56;;;;;;;7.10;2.53;;;10.60;93.20;;;;;;5057156;28;20040;-88
2023/04/15 07:49:21;;;;;;;5.32;2.78;;;8.80;90.30;;;;;;5040418;28;20104;-89
2023/04/15 07:51:48;;;;;;;5.68;3.05;;;8.80;75.40;;;;;;5040300;28;20091;-89
2023/04/15 07:54:15;;;;;;;7.63;2.88;;;8.80;74.30;;;;;;5057096;28;20041;-86
2023/04/15 07:56:40;;;;;;;3.78;2.40;;;10.50;75.30;;;;;;5057651;28;20078;-88
2023/04/15 07:59:08;;;;;;;7.22;2.58;;;8.90;69.70;;;;;;5041467;28;20040;-87
2023/04/15 08:01:34;;;;;;;7.13;2.45;;;11.00;61.80;;;;;;5057353;28;20048;-87
2023/04/15 08:04:00;;;;;;;5.72;2.30;;;9.00;61.20;;;;;;5039985;28;20442;-87
2023/04/15 08:06:26;;;;;;;4.70;2.08;;;7.40;51.20;;;;;;5040276;28;20056;-87
2023/04/15 08:08:53;;;;;;;4.35;2.60;;;9.10;49.00;;;;;;5057347;28;20044;-88
2023/04/15 08:11:19;;;;;;;3.58;1.88;;;9.10;40.50;;;;;;5056777;28;20090;-87
2023/04/15 08:13:45;;;;;;;3.60;2.00;;;9.20;37.70;;;;;;5041059;28;20040;-87
2023/04/15 08:16:23;;;;;;;4.78;2.63;;;11.10;36.30;;;;;;5040594;28;20040;-88
2023/04/15 08:18:51;;;;;;;3.75;2.08;;;9.20;24.90;;;;;;5040119;28;20080;-81
2023/04/15 08:21:18;;;;;;;4.28;2.20;;;9.10;22.40;;;;;;5040079;28;20040;-88
2023/04/15 08:23:45;;;;;;;3.75;2.13;;;9.10;22.90;;;;;;5040876;28;20051;-90
2023/04/15 08:26:11;;;;;;;3.78;2.47;;;9.10;25.90;;;;;;5056834;28;20044;-89
2023/04/15 08:28:40;;;;;;;8.07;1.92;;;9.30;27.80;;;;;;5040443;28;20040;-89
2023/04/15 08:31:07;;;;;;;6.15;2.17;;;9.00;33.10;;;;;;5041981;28;20055;-87
2023/04/15 08:33:33;;;;;;;4.07;1.80;;;9.00;34.30;;;;;;5044041;28;20032;-87
2023/04/15 08:35:58;;;;;;;3.03;1.55;;;10.00;26.10;;;;;;5059635;28;20070;-88
2023/04/15 08:38:24;;;;;;;3.40;1.73;;;8.80;16.80;;;;;;5044148;28;20073;-86
2023/04/15 08:40:50;;;;;;;2.97;1.67;;;8.80;15.40;;;;;;5043359;28;20037;-87
2023/04/15 08:43:23;;;;;;;1.95;1.35;;;8.80;21.10;;;;;;5060108;28;20044;-88
2023/04/15 08:45:51;;;;;;;3.42;1.92;;;8.80;13.80;;;;;;5043242;28;20127;-87
2023/04/15 08:48:16;;;;;;;3.85;1.60;;;8.80;19.10;;;;;;5060383;28;20033;-87
2023/04/15 08:50:42;;;;;;;4.05;1.65;;;8.70;14.90;;;;;;5059597;28;20098;-87
2023/04/15 08:53:09;;;;;;;5.03;2.13;;;9.80;20.80;;;;;;5043252;28;20480;-86
2023/04/15 08:55:37;;;;;;;2.42;1.45;;;8.80;20.40;;;;;;5043006;28;20049;-88
2023/04/15 08:58:04;;;;;;;3.47;1.73;;;10.50;22.40;;;;;;5060018;28;20036;-87
2023/04/15 09:00:31;;;;;;;2.15;1.38;;;9.00;23.40;;;;;;5042574;28;20400;-89
2023/04/15 09:02:58;;;;;;;2.75;1.40;;;9.00;17.80;;;;;;5059046;28;20436;-88
2023/04/15 09:05:23;;;;;;;4.40;1.48;;;11.10;7.40;;;;;;5042050;28;20479;-88
2023/04/15 09:07:50;;;;;;;2.10;1.33;;;9.10;2.20;;;;;;5060285;28;20048;-88
2023/04/15 09:10:16;;;;;;;2.63;1.40;;;9.20;1.00;;;;;;5059264;28;20041;-86
2023/04/15 09:12:41;;;;;;;2.65;1.45;;;9.20;1.00;;;;;;5058922;28;20399;-88
2023/04/15 09:15:09;;;;;;;3.13;1.30;;;9.20;1.00;;;;;;5042437;28;20498;-86
2023/04/15 09:17:42;;;;;;;2.67;1.40;;;9.30;1.00;;;;;;5042742;28;20055;-87
2023/04/15 09:20:12;;;;;;;2.30;1.08;;;9.40;1.00;;;;;;5059001;28;20040;-87
2023/04/15 09:22:42;;;;;;;1.08;0.80;;;9.50;1.00;;;;;;5042408;28;20040;-87
2023/04/15 09:25:14;;;;;;;2.45;1.40;;;9.50;1.00;;;;;;5042159;28;20052;-86
2023/04/15 09:27:57;;;;;;;2.78;1.40;;;10.30;1.00;;;;;;5041690;28;20047;-87
2023/04/15 09:30:24;;;;;;;2.03;1.08;;;9.50;1.00;;;;;;5057932;28;20446;-87
2023/04/15 09:32:51;;;;;;;1.80;1.00;;;9.50;1.00;;;;;;5058446;28;20068;-88
2023/04/15 09:35:17;;;;;;;1.48;1.02;;;9.40;1.00;;;;;;5041628;28;20049;-88
2023/04/15 09:37:43;;;;;;;4.30;1.00;;;10.60;1.00;;;;;;5042477;28;20483;-87
2023/04/15 09:40:09;;;;;;;1.45;0.98;;;9.40;1.00;;;;;;5042479;28;20047;-88
2023/04/15 09:42:36;;;;;;;1.50;0.70;;;9.40;1.00;;;;;;5058931;28;20084;-87
2023/04/15 09:45:11;;;;;;;0.90;0.70;;;9.40;1.00;;;;;;5058962;28;20502;-87
2023/04/15 09:47:37;;;;;;;1.95;1.00;;;10.90;1.00;;;;;;5058795;28;20043;-87
2023/04/15 09:50:03;;;;;;;5.55;1.20;;;9.30;1.00;;;;;;5041975;28;20472;-87
2023/04/15 09:52:29;;;;;;;1.95;1.02;;;9.30;1.00;;;;;;5041939;28;20044;-88
2023/04/15 09:54:58;;;;;;;2.80;1.13;;;11.70;1.00;;;;;;5058962;28;20450;-88
2023/04/15 09:57:24;;;;;;;1.48;0.82;;;11.40;1.00;;;;;;5041974;28;20426;-86
2023/04/15 09:59:51;;;;;;;1.83;1.10;;;10.50;1.00;;;;;;5041364;28;20036;-87
2023/04/15 10:02:21;;;;;;;2.38;1.10;;;11.70;1.00;;;;;;5057999;28;20129;-90
2023/04/15 10:04:48;;;;;;;2.03;1.02;;;9.50;1.00;;;;;;5041695;28;20131;-88
2023/04/15 10:07:14;;;;;;;1.55;0.82;;;11.80;1.00;;;;;;5058935;28;20053;-88
2023/04/15 10:09:40;;;;;;;2.28;1.08;;;10.70;1.00;;;;;;5058076;28;20036;-87
2023/04/15 10:12:06;;;;;;;0.98;0.73;;;9.60;1.00;;;;;;5057876;28;20393;-88
2023/04/15 10:14:34;;;;;;;2.25;1.10;;;11.60;1.00;;;;;;5041287;28;20040;-88
2023/04/15 10:17:04;;;;;;;1.80;1.10;;;11.20;1.00;;;;;;5041594;28;20054;-87
2023/04/15 10:19:36;;;;;;;3.00;1.40;;;9.80;1.00;;;;;;5057901;28;20059;-87
2023/04/15 10:22:02;;;;;;;1.45;1.00;;;9.60;1.00;;;;;;5041844;28;20442;-87
2023/04/15 10:24:31;;;;;;;1.42;0.80;;;9.70;1.00;;;;;;5042418;28;20079;-88
2023/04/15 10:26:58;;;;;;;2.90;1.10;;;9.70;1.00;;;;;;5058595;28;20127;-87
2023/04/15 10:29:27;;;;;;;2.78;0.93;;;9.60;1.00;;;;;;5058044;28;20066;-87
2023/04/15 10:32:00;;;;;;;2.00;1.00;;;9.60;1.00;;;;;;5056972;28;20048;-87
2023/04/15 10:34:26;;;;;;;3.70;1.25;;;11.00;1.00;;;;;;5041295;28;20516;-88
2023/04/15 10:36:57;;;;;;;1.23;0.88;;;9.60;1.00;;;;;;5058643;28;20040;-88
2023/04/15 10:39:43;;;;;;;0.70;0.60;;;9.70;1.00;;;;;;5057478;28;20048;-86
2023/04/15 10:42:14;;;;;;;2.22;1.08;;;9.70;1.00;;;;;;5057799;28;20650;-89
2023/04/15 10:44:59;;;;;;;1.60;0.77;;;9.70;1.00;;;;;;5040926;28;20606;-88
2023/04/15 10:47:24;;;;;;;1.38;1.00;;;10.10;1.00;;;;;;5040959;28;20052;-87
2023/04/15 10:49:51;;;;;;;1.70;1.20;;;9.70;1.00;;;;;;5041532;28;20039;-87
2023/04/15 10:52:21;;;;;;;1.45;0.80;;;9.70;1.00;;;;;;5041311;28;20492;-86
2023/04/15 10:54:47;;;;;;;0.90;0.60;;;9.70;1.00;;;;;;5041639;28;20075;-87
2023/04/15 10:57:16;;;;;;;1.92;0.90;;;9.70;1.00;;;;;;5042511;28;20036;-86
2023/04/15 10:59:59;;;;;;;1.48;0.90;;;9.70;1.00;;;;;;5041203;28;20052;-86
2023/04/15 11:02:55;;;;;;;1.70;0.98;;;9.70;1.00;;;;;;5042515;28;20135;-87
2023/04/15 11:05:40;;;;;;;1.33;0.85;;;9.70;1.00;;;;;;5051186;28;20380;-88
2023/04/15 11:08:07;;;;;;;0.95;0.50;;;9.70;1.00;;;;;;5057683;28;20051;-87
2023/04/15 11:10:33;;;;;;;3.00;1.00;;;9.80;1.00;;;;;;5041037;28;20045;-88
2023/04/15 11:13:01;;;;;;;3.20;0.90;;;9.80;1.00;;;;;;5041180;28;20033;-86
2023/04/15 11:15:40;;;;;;;1.80;0.93;;;10.30;1.00;;;;;;5041305;28;20040;-88
2023/04/15 11:18:18;;;;;;;1.98;0.95;;;9.80;1.00;;;;;;5057551;28;20088;-86
2023/04/15 11:20:58;;;;;;;2.53;0.90;;;11.60;1.00;;;;;;5041664;28;20119;-88
2023/04/15 11:23:33;;;;;;;2.33;1.00;;;9.80;1.00;;;;;;5041535;28;20040;-86
2023/04/15 11:26:02;;;;;;;1.83;1.00;;;9.80;1.00;;;;;;5058124;28;20038;-88
2023/04/15 11:28:30;;;;;;;4.18;1.40;;;11.90;1.00;;;;;;5057820;28;20115;-87
2023/04/15 11:30:56;;;;;;;1.92;0.93;;;9.90;1.00;;;;;;5058084;28;20044;-87
2023/04/15 11:33:23;;;;;;;1.10;1.00;;;9.90;1.00;;;;;;5041382;28;20032;-87
2023/04/15 11:35:49;;;;;;;1.75;1.17;;;10.50;1.00;;;;;;5057343;28;20058;-87
2023/04/15 11:38:15;;;;;;;1.77;1.10;;;10.20;1.00;;;;;;5057896;28;20067;-87
2023/04/15 11:40:42;;;;;;;1.45;0.95;;;10.40;1.00;;;;;;5041004;28;20056;-88
2023/04/15 11:43:10;;;;;;;3.67;1.08;;;10.80;1.00;;;;;;5040907;28;20143;-89
2023/04/15 11:45:46;;;;;;;1.35;0.75;;;10.60;1.00;;;;;;5058369;28;20037;-87
2023/04/15 11:48:12;;;;;;;2.15;1.10;;;11.10;1.00;;;;;;5041537;28;20446;-87
2023/04/15 11:50:41;;;;;;;2.85;1.63;;;10.60;1.00;;;;;;5040397;28;20396;-87
2023/04/15 11:53:10;;;;;;;1.35;1.00;;;10.50;1.00;;;;;;5040833;28;20403;-88
2023/04/15 11:55:50;;;;;;;1.83;0.98;;;10.50;1.00;;;;;;5058762;28;20162;-88
2023/04/15 11:58:17;;;;;;;1.42;0.93;;;10.50;1.00;;;;;;5040105;28;20040;-87
2023/04/15 12:00:54;;;;;;;1.95;0.82;;;10.50;1.00;;;;;;5040620;28;20041;-88
2023/04/15 12:03:35;;;;;;;2.80;0.80;;;10.50;1.00;;;;;;5057255;28;20399;-87
2023/04/15 12:06:06;;;;;;;1.45;1.10;;;12.10;1.00;;;;;;5059757;28;20124;-88
2023/04/15 12:09:07;;;;;;;1.05;0.80;;;10.60;1.00;;;;;;5061731;28;20510;-87
2023/04/15 12:11:32;;;;;;;1.42;0.80;;;10.70;1.00;;;;;;4980760;28;20129;-88
2023/04/15 12:14:08;;;;;;;4.45;0.93;;;10.70;1.00;;;;;;5028099;28;20083;-87
2023/04/15 12:16:43;;;;;;;1.67;0.77;;;10.80;1.00;;;;;;5060883;28;20044;-88
2023/04/15 12:19:11;;;;;;;2.58;0.93;;;10.80;1.00;;;;;;5044806;28;20111;-89
2023/04/15 12:21:39;;;;;;;0.55;0.55;;;10.80;1.00;;;;;;5045184;28;20072;-88
2023/04/15 12:24:08;;;;;;;3.78;0.93;;;11.60;1.00;;;;;;5044648;28;20041;-87
2023/04/15 12:26:34;;;;;;;1.65;0.90;;;10.70;1.00;;;;;;5044501;28;20044;-86
2023/04/15 12:29:07;;;;;;;2.10;1.23;;;10.60;1.00;;;;;;5061206;28;20399;-88
2023/04/15 12:31:45;;;;;;;3.38;0.80;;;10.80;1.00;;;;;;5061179;28;20037;-88
2023/04/15 12:34:11;;;;;;;1.58;0.90;;;12.30;1.00;;;;;;5043629;28;20071;-88
2023/04/15 12:36:36;;;;;;;1.15;0.77;;;10.40;1.00;;;;;;5044501;28;20176;-89
2023/04/15 12:39:03;;;;;;;0.45;0.45;;;10.40;1.00;;;;;;5045073;28;20041;-87
2023/04/15 12:41:30;;;;;;;1.17;0.43;;;10.30;1.00;;;;;;5061558;28;20047;-87
2023/04/15 12:43:56;;;;;;;2.33;0.80;;;10.20;1.00;;;;;;5044441;28;20040;-89
2023/04/15 12:46:22;;;;;;;0.80;0.52;;;10.00;11.30;;;;;;5060173;28;20103;-88
2023/04/15 12:48:48;;;;;;;3.15;0.80;;;11.90;17.10;;;;;;5043495;28;20625;-88
2023/04/15 12:51:14;;;;;;;3.97;0.85;;;10.00;28.60;;;;;;5043804;28;20048;-86
2023/04/15 12:53:40;;;;;;;1.38;0.50;;;10.00;38.70;;;;;;5060595;28;20484;-85
2023/04/15 12:56:05;;;;;;;2.05;0.82;;;9.90;36.40;;;;;;5060464;28;20064;-88
2023/04/15 12:58:32;;;;;;;1.25;0.70;;;9.90;43.70;;;;;;5044905;28;20032;-87